createdAt,value
2022-11-09T00:00:45.058Z,50.70
2022-11-09T00:03:13.161Z,50.22
2022-11-09T00:05:40.382Z,50.37
2022-11-09T00:08:09.098Z,50.42
2022-11-09T00:10:37.107Z,50.72
2022-11-09T00:13:05.751Z,50.44
2022-11-09T00:15:33.028Z,50.30
2022-11-09T00:18:02.628Z,50.32
2022-11-09T00:20:29.974Z,50.63
2022-11-09T00:22:57.212Z,50.65
2022-11-09T00:25:24.403Z,50.59
2022-11-09T00:27:51.344Z,50.92
2022-11-09T00:30:19.802Z,50.95
2022-11-09T00:32:47.975Z,50.89
2022-11-09T00:35:15.131Z,51.06
2022-11-09T00:37:42.145Z,51.33
2022-11-09T00:40:11.550Z,51.56
2022-11-09T00:42:38.853Z,51.25
2022-11-09T00:45:07.031Z,51.41
2022-11-09T00:47:35.308Z,51.44
2022-11-09T00:50:02.301Z,51.73
2022-11-09T00:52:29.969Z,51.56
2022-11-09T00:54:56.986Z,51.74
2022-11-09T00:57:23.931Z,51.51
2022-11-09T00:59:51.844Z,51.59
2022-11-09T01:02:18.856Z,51.60
2022-11-09T01:04:47.154Z,51.53
2022-11-09T01:07:14.169Z,51.85
2022-11-09T01:09:41.140Z,51.84
2022-11-09T01:12:08.118Z,52.05
2022-11-09T01:14:35.092Z,51.89
2022-11-09T01:17:02.045Z,51.92
2022-11-09T01:19:28.973Z,52.23
2022-11-09T01:21:57.288Z,52.30
2022-11-09T01:24:24.535Z,52.28
2022-11-09T01:26:51.551Z,52.66
2022-11-09T01:29:18.527Z,52.74
2022-11-09T01:31:46.677Z,52.51
2022-11-09T01:34:13.676Z,52.35
2022-11-09T01:36:40.647Z,52.27
2022-11-09T01:39:08.910Z,52.46
2022-11-09T01:41:35.842Z,52.45
2022-11-09T01:44:07.299Z,52.42
2022-11-09T01:46:40.899Z,52.48
2022-11-09T01:49:18.580Z,52.55
2022-11-09T01:51:51.084Z,52.33
2022-11-09T01:54:27.169Z,52.33
2022-11-09T01:57:13.768Z,52.63
2022-11-09T01:59:47.233Z,52.57
2022-11-09T02:02:14.698Z,52.55
2022-11-09T02:04:49.259Z,52.76
2022-11-09T02:07:16.783Z,53.01
2022-11-09T02:09:53.630Z,52.89
2022-11-09T02:12:23.911Z,52.70
2022-11-09T02:14:54.536Z,52.64
2022-11-09T02:17:22.123Z,52.75
2022-11-09T02:19:49.087Z,52.88
2022-11-09T02:22:17.355Z,52.83
2022-11-09T02:24:45.212Z,52.75
2022-11-09T02:27:12.255Z,53.00
2022-11-09T02:29:43.866Z,53.17
2022-11-09T02:32:18.716Z,53.33
2022-11-09T02:34:45.994Z,53.27
2022-11-09T02:37:13.052Z,53.25
2022-11-09T02:39:41.374Z,53.43
2022-11-09T02:42:19.951Z,53.34
2022-11-09T02:44:53.617Z,53.45
2022-11-09T02:47:20.596Z,53.54
2022-11-09T02:49:47.689Z,53.53
2022-11-09T02:52:14.629Z,53.37
2022-11-09T02:54:42.951Z,53.21
2022-11-09T02:57:09.979Z,53.15
2022-11-09T02:59:36.975Z,53.19
2022-11-09T03:02:04.000Z,53.02
2022-11-09T03:04:30.975Z,53.27
2022-11-09T03:06:58.034Z,53.11
2022-11-09T03:09:25.083Z,53.01
2022-11-09T03:11:53.359Z,53.00
2022-11-09T03:14:20.284Z,53.13
2022-11-09T03:16:50.443Z,53.14
2022-11-09T03:19:17.541Z,53.12
2022-11-09T03:21:44.515Z,53.08
2022-11-09T03:24:11.708Z,53.33
2022-11-09T03:26:38.650Z,53.18
2022-11-09T03:29:07.077Z,53.03
2022-11-09T03:31:34.044Z,53.18
2022-11-09T03:34:00.980Z,53.47
2022-11-09T03:36:27.893Z,53.54
2022-11-09T03:38:54.832Z,53.81
2022-11-09T03:41:21.784Z,53.54
2022-11-09T03:43:48.747Z,53.21
2022-11-09T03:46:17.175Z,53.43
2022-11-09T03:48:44.118Z,53.67
2022-11-09T03:51:11.051Z,53.56
2022-11-09T03:53:37.998Z,53.66
2022-11-09T03:56:05.685Z,53.56
2022-11-09T03:58:32.670Z,53.86
2022-11-09T04:00:59.570Z,53.55
2022-11-09T04:03:27.826Z,53.49
2022-11-09T04:05:54.772Z,53.67
2022-11-09T04:08:21.679Z,53.64
2022-11-09T04:10:48.600Z,53.87
2022-11-09T04:13:15.579Z,53.88
2022-11-09T04:15:43.278Z,53.82
2022-11-09T04:18:14.079Z,53.98
2022-11-09T04:20:43.339Z,53.90
2022-11-09T04:23:13.133Z,53.72
2022-11-09T04:25:42.140Z,53.73
2022-11-09T04:28:12.615Z,53.66
2022-11-09T04:30:39.997Z,53.54
2022-11-09T04:33:06.935Z,53.67
2022-11-09T04:35:34.810Z,53.58
2022-11-09T04:38:05.981Z,53.49
2022-11-09T04:40:35.311Z,53.54
2022-11-09T04:43:04.381Z,53.59
2022-11-09T04:45:33.885Z,53.46
2022-11-09T04:48:02.967Z,53.75
2022-11-09T04:50:30.393Z,53.96
2022-11-09T04:53:08.101Z,53.64
2022-11-09T04:55:35.857Z,53.70
2022-11-09T04:58:02.964Z,53.42
2022-11-09T05:00:30.306Z,53.63
2022-11-09T05:03:01.161Z,53.61
2022-11-09T05:05:29.336Z,53.93
2022-11-09T05:07:56.540Z,54.12
2022-11-09T05:10:24.848Z,53.92
2022-11-09T05:12:57.962Z,53.78
2022-11-09T05:15:25.151Z,53.87
2022-11-09T05:17:52.225Z,54.01
2022-11-09T05:20:19.526Z,53.96
2022-11-09T05:23:05.003Z,53.80
2022-11-09T05:25:33.685Z,53.91
2022-11-09T05:28:01.191Z,53.88
2022-11-09T05:30:28.215Z,53.95
2022-11-09T05:32:55.143Z,53.83
2022-11-09T05:35:22.193Z,53.74
2022-11-09T05:37:50.222Z,53.65
2022-11-09T05:40:18.973Z,53.88
2022-11-09T05:42:47.816Z,53.82
2022-11-09T05:45:41.453Z,53.59
2022-11-09T05:48:07.339Z,53.95
2022-11-09T05:50:34.673Z,53.91
2022-11-09T05:53:02.358Z,53.83
2022-11-09T05:55:29.451Z,53.78
2022-11-09T05:57:57.895Z,53.69
2022-11-09T06:00:25.701Z,53.77
2022-11-09T06:02:52.823Z,53.94
2022-11-09T06:05:22.826Z,53.74
2022-11-09T06:07:49.789Z,53.80
2022-11-09T06:10:17.647Z,53.79
2022-11-09T06:12:44.662Z,54.05
2022-11-09T06:15:13.318Z,54.11
2022-11-09T06:17:40.235Z,54.19
2022-11-09T06:20:08.237Z,54.08
2022-11-09T06:22:35.250Z,54.14
2022-11-09T06:25:02.217Z,54.13
2022-11-09T06:27:29.192Z,54.25
2022-11-09T06:29:56.131Z,54.22
2022-11-09T06:32:24.508Z,54.12
2022-11-09T06:34:51.512Z,54.23
2022-11-09T06:37:18.474Z,54.22
2022-11-09T06:39:47.174Z,54.14
2022-11-09T06:42:14.210Z,53.98
2022-11-09T06:44:41.159Z,53.83
2022-11-09T06:47:08.146Z,53.99
2022-11-09T06:49:36.433Z,53.75
2022-11-09T06:52:04.137Z,53.60
2022-11-09T06:54:32.573Z,53.67
2022-11-09T06:56:59.529Z,53.60
2022-11-09T06:59:26.544Z,53.59
2022-11-09T07:01:57.680Z,53.64
2022-11-09T07:04:28.133Z,53.72
2022-11-09T07:06:56.447Z,53.70
2022-11-09T07:09:23.459Z,53.41
2022-11-09T07:11:50.393Z,53.58
2022-11-09T07:14:17.608Z,53.55
2022-11-09T07:16:44.609Z,53.42
2022-11-09T07:19:11.554Z,53.40
2022-11-09T07:21:38.723Z,53.13
2022-11-09T07:24:07.610Z,53.29
2022-11-09T07:26:34.574Z,53.08
2022-11-09T07:29:01.547Z,53.06
2022-11-09T07:31:29.253Z,52.59
2022-11-09T07:33:58.239Z,52.55
2022-11-09T07:36:25.197Z,52.70
2022-11-09T07:38:52.124Z,52.46
2022-11-09T07:41:20.489Z,52.62
2022-11-09T07:43:47.446Z,52.40
2022-11-09T07:46:14.874Z,52.43
2022-11-09T07:48:41.992Z,51.85
2022-11-09T07:51:09.255Z,51.76
2022-11-09T07:53:36.268Z,51.81
2022-11-09T07:56:04.750Z,51.65
2022-11-09T07:58:34.243Z,51.21
2022-11-09T08:01:01.278Z,51.24
2022-11-09T08:03:28.203Z,51.36
2022-11-09T08:05:57.940Z,51.20
2022-11-09T08:08:25.077Z,51.08
2022-11-09T08:10:53.044Z,51.07
2022-11-09T08:13:21.195Z,50.80
2022-11-09T08:15:49.823Z,50.59
2022-11-09T08:18:20.562Z,50.21
2022-11-09T08:20:48.786Z,50.30
2022-11-09T08:23:20.980Z,50.71
2022-11-09T08:25:48.594Z,51.07
2022-11-09T08:28:16.287Z,50.71
2022-11-09T08:30:44.232Z,50.56
2022-11-09T08:33:13.705Z,50.74
2022-11-09T08:35:40.719Z,50.81
2022-11-09T08:38:07.716Z,50.81
2022-11-09T08:40:34.773Z,50.37
2022-11-09T08:43:03.980Z,49.82
2022-11-09T08:45:34.030Z,50.26
2022-11-09T08:48:02.201Z,50.11
2022-11-09T08:50:32.952Z,49.57
2022-11-09T08:53:01.519Z,49.57
2022-11-09T08:55:28.696Z,49.73
2022-11-09T08:57:58.568Z,48.77
2022-11-09T09:00:26.492Z,49.10
2022-11-09T09:02:53.793Z,48.85
2022-11-09T09:05:21.474Z,48.74
2022-11-09T09:07:50.036Z,48.29
2022-11-09T09:10:17.228Z,48.31
2022-11-09T09:12:44.685Z,48.13
2022-11-09T09:15:12.421Z,47.51
2022-11-09T09:17:39.622Z,47.46
2022-11-09T09:20:07.913Z,47.74
2022-11-09T09:22:35.217Z,47.35
2022-11-09T09:25:04.571Z,47.11
2022-11-09T09:27:32.006Z,46.60
2022-11-09T09:29:59.173Z,46.88
2022-11-09T09:32:26.785Z,47.04
2022-11-09T09:34:53.729Z,46.24
2022-11-09T09:37:21.720Z,46.75
2022-11-09T09:39:49.044Z,46.44
2022-11-09T09:42:22.600Z,46.36
2022-11-09T09:44:59.257Z,46.45
2022-11-09T09:47:46.043Z,45.91
2022-11-09T09:50:18.754Z,46.31
2022-11-09T09:53:10.915Z,45.91
2022-11-09T09:55:46.577Z,46.04
2022-11-09T09:58:25.539Z,45.95
2022-11-09T10:01:11.245Z,45.99
2022-11-09T10:03:38.454Z,45.99
2022-11-09T10:06:29.116Z,46.15
2022-11-09T10:09:13.185Z,44.76
2022-11-09T10:11:55.311Z,45.40
2022-11-09T10:15:05.599Z,45.85
2022-11-09T10:17:45.413Z,45.93
2022-11-09T10:20:37.062Z,45.95
2022-11-09T10:23:37.473Z,45.84
2022-11-09T10:26:18.907Z,45.53
2022-11-09T10:29:15.114Z,45.37
2022-11-09T10:31:46.246Z,45.32
2022-11-09T10:34:20.285Z,45.00
2022-11-09T10:36:59.364Z,45.71
2022-11-09T10:39:40.274Z,45.52
2022-11-09T10:42:11.140Z,45.32
2022-11-09T10:44:38.561Z,45.38
2022-11-09T10:47:12.049Z,45.17
2022-11-09T10:49:41.041Z,44.89
2022-11-09T10:52:32.460Z,45.38
2022-11-09T10:55:24.990Z,44.66
2022-11-09T10:58:01.637Z,44.19
2022-11-09T11:00:29.360Z,44.53
2022-11-09T11:03:09.572Z,44.26
2022-11-09T11:05:37.441Z,44.61
2022-11-09T11:08:28.855Z,44.41
2022-11-09T11:11:35.603Z,44.55
2022-11-09T11:14:19.945Z,45.11
2022-11-09T11:16:53.128Z,45.17
2022-11-09T11:19:35.971Z,44.87
2022-11-09T11:22:19.405Z,44.92
2022-11-09T11:24:54.249Z,44.34
2022-11-09T11:27:30.174Z,44.45
2022-11-09T11:30:06.772Z,43.53
2022-11-09T11:32:34.508Z,43.61
2022-11-09T11:35:05.609Z,43.05
2022-11-09T11:37:54.003Z,43.19
2022-11-09T11:40:30.994Z,43.48
2022-11-09T11:43:18.600Z,43.74
2022-11-09T11:45:58.900Z,42.96
2022-11-09T11:48:58.794Z,43.13
2022-11-09T11:51:40.415Z,43.18
2022-11-09T11:54:21.568Z,43.84
2022-11-09T11:56:59.252Z,43.76
2022-11-09T11:59:53.829Z,43.43
2022-11-09T12:03:30.656Z,43.83
2022-11-09T12:06:14.146Z,43.65
2022-11-09T12:09:02.733Z,43.82
2022-11-09T12:11:47.235Z,43.12
2022-11-09T12:14:32.299Z,42.65
2022-11-09T12:17:10.618Z,41.74
2022-11-09T12:20:03.335Z,42.48
2022-11-09T12:22:55.011Z,42.26
2022-11-09T12:25:31.535Z,41.93
2022-11-09T12:28:14.580Z,42.00
2022-11-09T12:31:01.243Z,41.92
2022-11-09T12:33:43.449Z,41.67
2022-11-09T12:36:17.941Z,41.40
2022-11-09T12:38:59.026Z,41.62
2022-11-09T12:41:35.032Z,41.28
2022-11-09T12:44:13.212Z,41.19
2022-11-09T12:46:51.130Z,41.54
2022-11-09T12:49:34.912Z,41.25
2022-11-09T12:52:03.904Z,41.91
2022-11-09T12:54:31.375Z,41.16
2022-11-09T12:57:05.442Z,41.51
2022-11-09T12:59:47.929Z,41.42
2022-11-09T13:02:28.240Z,41.77
2022-11-09T13:04:58.835Z,42.10
2022-11-09T13:07:52.977Z,42.54
2022-11-09T13:10:30.216Z,42.19
2022-11-09T13:13:24.574Z,41.59
2022-11-09T13:16:11.265Z,42.14
2022-11-09T13:18:52.523Z,42.48
2022-11-09T13:21:38.569Z,42.37
2022-11-09T13:24:54.673Z,42.37
2022-11-09T13:27:41.780Z,41.74
2022-11-09T13:30:43.585Z,41.30
2022-11-09T13:33:22.746Z,42.10
2022-11-09T13:36:17.773Z,41.09
2022-11-09T13:38:46.332Z,41.64
2022-11-09T13:41:43.527Z,41.69
2022-11-09T13:44:24.115Z,41.41
2022-11-09T13:46:54.635Z,41.84
2022-11-09T13:49:47.504Z,41.53
2022-11-09T13:52:51.755Z,42.00
2022-11-09T13:55:35.579Z,42.00
2022-11-09T13:58:14.964Z,41.79
2022-11-09T14:00:47.388Z,42.20
2022-11-09T14:03:23.876Z,41.64
2022-11-09T14:05:55.099Z,41.34
2022-11-09T14:08:25.830Z,41.94
2022-11-09T14:11:17.699Z,42.02
2022-11-09T14:14:07.893Z,42.24
2022-11-09T14:16:50.646Z,41.53
2022-11-09T14:19:43.206Z,41.96
2022-11-09T14:22:16.451Z,41.35
2022-11-09T14:24:44.226Z,42.20
2022-11-09T14:27:16.796Z,41.73
2022-11-09T14:29:51.630Z,41.87
2022-11-09T14:32:31.963Z,42.26
2022-11-09T14:35:30.756Z,42.55
2022-11-09T14:38:01.843Z,42.52
2022-11-09T14:40:31.324Z,42.66
2022-11-09T14:43:02.092Z,42.23
2022-11-09T14:45:29.459Z,42.83
2022-11-09T14:47:59.575Z,42.91
2022-11-09T14:50:31.831Z,42.56
2022-11-09T14:53:01.096Z,43.11
2022-11-09T14:55:28.819Z,42.81
2022-11-09T14:57:57.202Z,42.78
2022-11-09T15:00:35.184Z,42.72
2022-11-09T15:03:28.196Z,42.86
2022-11-09T15:06:10.993Z,43.12
2022-11-09T15:08:50.520Z,42.65
2022-11-09T15:11:17.783Z,43.05
2022-11-09T15:13:44.773Z,42.85
2022-11-09T15:16:22.752Z,42.56
2022-11-09T15:18:50.254Z,42.53
2022-11-09T15:21:33.552Z,43.12
2022-11-09T15:24:14.636Z,42.72
2022-11-09T15:26:44.687Z,42.90
2022-11-09T15:29:36.130Z,43.96
2022-11-09T15:32:16.052Z,44.23
2022-11-09T15:34:54.310Z,44.70
2022-11-09T15:37:28.478Z,45.53
2022-11-09T15:39:56.096Z,45.74
2022-11-09T15:42:24.553Z,45.52
2022-11-09T15:44:53.734Z,45.75
2022-11-09T15:47:31.487Z,46.52
2022-11-09T15:50:00.123Z,46.47
2022-11-09T15:52:28.831Z,46.67
2022-11-09T15:55:05.286Z,45.93
2022-11-09T15:57:32.757Z,46.30
2022-11-09T16:00:01.412Z,45.92
2022-11-09T16:02:28.469Z,45.66
2022-11-09T16:04:55.794Z,46.08
2022-11-09T16:07:22.951Z,45.70
2022-11-09T16:09:51.281Z,45.67
2022-11-09T16:12:18.579Z,45.73
2022-11-09T16:14:45.575Z,45.83
2022-11-09T16:17:12.563Z,45.67
2022-11-09T16:19:39.607Z,45.73
2022-11-09T16:22:08.386Z,45.83
2022-11-09T16:24:35.583Z,45.74
2022-11-09T16:27:12.513Z,45.65
2022-11-09T16:29:49.268Z,46.04
2022-11-09T16:32:16.301Z,46.12
2022-11-09T16:34:43.409Z,45.93
2022-11-09T16:37:10.567Z,45.95
2022-11-09T16:39:38.357Z,45.87
2022-11-09T16:42:11.524Z,45.78
2022-11-09T16:44:43.008Z,46.13
2022-11-09T16:47:14.539Z,45.91
2022-11-09T16:49:41.503Z,46.08
2022-11-09T16:52:09.297Z,46.13
2022-11-09T16:54:36.709Z,45.59
2022-11-09T16:57:04.725Z,46.15
2022-11-09T16:59:33.064Z,45.89
2022-11-09T17:02:00.425Z,45.88
2022-11-09T17:04:27.498Z,45.85
2022-11-09T17:06:54.511Z,46.32
2022-11-09T17:09:21.748Z,46.66
2022-11-09T17:11:49.385Z,46.45
2022-11-09T17:14:16.395Z,46.68
2022-11-09T17:16:44.791Z,46.34
2022-11-09T17:19:13.578Z,46.76
2022-11-09T17:21:40.742Z,46.25
2022-11-09T17:24:07.905Z,46.37
2022-11-09T17:26:35.003Z,46.45
2022-11-09T17:29:02.032Z,46.32
2022-11-09T17:31:29.781Z,46.38
2022-11-09T17:34:01.160Z,46.85
2022-11-09T17:36:49.310Z,47.33
2022-11-09T17:39:15.909Z,47.52
2022-11-09T17:41:43.144Z,47.39
2022-11-09T17:44:10.335Z,47.34
2022-11-09T17:46:37.321Z,46.90
2022-11-09T17:49:10.036Z,46.80
2022-11-09T17:51:38.095Z,46.56
2022-11-09T17:54:05.821Z,46.54
2022-11-09T17:56:34.087Z,46.58
2022-11-09T17:59:02.977Z,46.36
2022-11-09T18:01:30.555Z,46.47
2022-11-09T18:03:58.848Z,46.33
2022-11-09T18:06:29.356Z,45.81
2022-11-09T18:09:26.750Z,45.83
2022-11-09T18:11:44.070Z,45.67
2022-11-09T18:14:11.139Z,45.76
2022-11-09T18:16:38.546Z,45.37
2022-11-09T18:19:06.494Z,45.71
2022-11-09T18:21:34.833Z,45.80
2022-11-09T18:24:01.938Z,45.66
2022-11-09T18:26:31.140Z,45.67
2022-11-09T18:28:58.750Z,45.65
2022-11-09T18:31:25.861Z,45.82
2022-11-09T18:33:53.217Z,45.89
2022-11-09T18:36:24.040Z,45.75
2022-11-09T18:38:55.668Z,45.56
2022-11-09T18:41:24.911Z,45.68
2022-11-09T18:43:53.894Z,45.84
2022-11-09T18:46:21.827Z,45.99
2022-11-09T18:48:51.956Z,47.95
2022-11-09T18:51:20.053Z,49.29
2022-11-09T18:53:48.267Z,50.33
2022-11-09T18:56:23.020Z,51.21
2022-11-09T18:58:52.939Z,51.33
2022-11-09T19:01:25.557Z,51.83
2022-11-09T19:03:59.067Z,52.93
2022-11-09T19:06:28.071Z,53.13
2022-11-09T19:09:14.522Z,53.61
2022-11-09T19:11:43.027Z,54.21
2022-11-09T19:14:11.237Z,54.28
2022-11-09T19:16:38.645Z,54.53
2022-11-09T19:19:05.647Z,55.01
2022-11-09T19:21:40.424Z,55.34
2022-11-09T19:24:10.965Z,56.09
2022-11-09T19:26:38.379Z,56.27
2022-11-09T19:29:08.205Z,56.14
2022-11-09T19:31:38.392Z,56.66
2022-11-09T19:34:05.612Z,56.65
2022-11-09T19:36:33.667Z,56.88
2022-11-09T19:39:01.481Z,57.14
2022-11-09T19:41:29.259Z,57.30
2022-11-09T19:43:58.595Z,57.16
2022-11-09T19:46:30.371Z,57.18
2022-11-09T19:48:58.094Z,57.50
2022-11-09T19:51:26.004Z,57.47
2022-11-09T19:53:55.221Z,57.59
2022-11-09T19:56:24.940Z,57.57
2022-11-09T19:58:55.108Z,57.79
2022-11-09T20:01:23.732Z,57.85
2022-11-09T20:03:54.176Z,57.68
2022-11-09T20:06:23.091Z,57.82
2022-11-09T20:08:51.920Z,57.62
2022-11-09T20:11:41.424Z,57.71
2022-11-09T20:14:10.451Z,57.46
2022-11-09T20:16:39.020Z,57.67
2022-11-09T20:19:10.911Z,57.49
2022-11-09T20:21:40.134Z,57.60
2022-11-09T20:24:08.674Z,57.31
2022-11-09T20:26:36.111Z,57.72
2022-11-09T20:29:03.235Z,57.55
2022-11-09T20:31:30.282Z,57.49
2022-11-09T20:33:57.575Z,57.36
2022-11-09T20:36:26.218Z,57.53
2022-11-09T20:38:54.544Z,57.30
2022-11-09T20:41:25.176Z,57.37
2022-11-09T20:43:53.130Z,57.62
2022-11-09T20:46:23.089Z,57.53
2022-11-09T20:48:54.588Z,57.77
2022-11-09T20:51:24.780Z,57.52
2022-11-09T20:53:52.230Z,57.80
2022-11-09T20:56:20.984Z,57.65
2022-11-09T20:58:48.214Z,57.61
2022-11-09T21:01:18.245Z,57.84
2022-11-09T21:03:46.242Z,57.74
2022-11-09T21:06:14.870Z,57.91
2022-11-09T21:08:47.127Z,57.64
2022-11-09T21:11:14.429Z,57.93
2022-11-09T21:13:43.908Z,57.93
2022-11-09T21:16:13.998Z,57.96
2022-11-09T21:18:42.197Z,57.72
2022-11-09T21:21:11.802Z,57.72
2022-11-09T21:23:58.823Z,57.61
2022-11-09T21:26:46.308Z,57.94
2022-11-09T21:29:33.757Z,57.85
2022-11-09T21:32:01.135Z,57.93
2022-11-09T21:34:32.749Z,57.86
2022-11-09T21:37:02.571Z,57.76
2022-11-09T21:39:29.537Z,57.82
2022-11-09T21:41:58.605Z,57.76
2022-11-09T21:44:28.843Z,58.11
2022-11-09T21:46:55.859Z,57.96
2022-11-09T21:49:24.310Z,57.94
2022-11-09T21:51:51.544Z,57.86
2022-11-09T21:54:18.684Z,57.64
2022-11-09T21:56:47.753Z,57.61
2022-11-09T21:59:16.378Z,57.42
2022-11-09T22:01:43.525Z,57.72
2022-11-09T22:04:11.212Z,57.84
2022-11-09T22:06:40.459Z,57.43
2022-11-09T22:09:13.718Z,57.65
2022-11-09T22:12:00.208Z,57.36
2022-11-09T22:14:47.211Z,57.61
2022-11-09T22:17:14.817Z,57.69
2022-11-09T22:20:00.487Z,57.65
2022-11-09T22:22:29.989Z,57.61
2022-11-09T22:24:57.261Z,57.92
2022-11-09T22:27:24.390Z,57.85
2022-11-09T22:29:52.643Z,57.53
2022-11-09T22:32:19.812Z,57.59
2022-11-09T22:34:46.804Z,57.73
2022-11-09T22:37:13.769Z,57.90
2022-11-09T22:39:45.968Z,57.59
2022-11-09T22:42:14.593Z,57.74
2022-11-09T22:44:41.594Z,57.48
2022-11-09T22:47:10.182Z,57.72
2022-11-09T22:49:37.177Z,57.75
2022-11-09T22:52:04.944Z,57.76
2022-11-09T22:54:32.071Z,57.48
2022-11-09T22:56:59.084Z,57.71
2022-11-09T22:59:26.176Z,57.67
2022-11-09T23:01:53.260Z,57.54
2022-11-09T23:04:21.928Z,57.63
2022-11-09T23:06:48.947Z,57.66
2022-11-09T23:09:16.266Z,57.59
2022-11-09T23:11:43.352Z,57.37
2022-11-09T23:14:11.959Z,57.54
2022-11-09T23:16:38.916Z,57.59
2022-11-09T23:19:05.927Z,57.49
2022-11-09T23:21:37.138Z,57.47
2022-11-09T23:24:07.417Z,57.42
2022-11-09T23:26:35.102Z,57.27
2022-11-09T23:29:02.177Z,57.17
2022-11-09T23:31:29.222Z,57.35
2022-11-09T23:33:57.821Z,57.23
2022-11-09T23:36:26.689Z,57.18
2022-11-09T23:38:55.067Z,57.08
2022-11-09T23:41:22.221Z,57.47
2022-11-09T23:43:50.193Z,57.37
2022-11-09T23:46:18.017Z,57.57
2022-11-09T23:48:45.276Z,57.34
2022-11-09T23:51:12.726Z,57.41
2022-11-09T23:53:40.049Z,57.61
2022-11-09T23:56:11.426Z,57.30
2022-11-09T23:58:38.838Z,57.26
